NWS Home NWS Lubbock West Texas Mesonet                      Daily Summary For 01/20/2021

Latest   N   C   S   Daily Sum   3hrΔ   24hrΔ   Soil Data 
Site Map   24hr Precip   72hr Precip   Google Plot


Station Time of Last Max Temp Min Temp Max/Min Dew Pt. Max/Min RH 10m Avg Wind 2m Avg Wind Peak Gust @ 33ft (mph) Potential Evapotranspiration
mm/day or in/day
Rain Sum Solar Rad
MJ/m^2
% Clear Day Red Flag
Abernathy 5ENE 11:59 PM 71 51 36 /16 48 / 14 11.5  (NW) 9.3 27.4 mph 248° @ 1237 PM 2 or 0.08 0.00 10.1 74.3 0
Adrian 6WSW 11:59 PM 71 51 36 /16 48 / 14 17.9  (W) 13.8 40.1 mph 243° @ 0309 PM 2.8 or 0.11 0.00 12.9 99.2 0
Aiken 3WSW 11:59 PM 71 51 36 /16 48 / 14 12.5  (W) 10 28.1 mph 249° @ 0118 PM 2 or 0.08 0.00 10.2 76 0
Amarillo 15NNW 11:59 PM 71 51 36 /16 48 / 14 15.1  (SW) 9.4 40.1 mph 210° @ 1050 AM 3 or 0.12 0.00 11.5 89.6 0
Amarillo 7SSE 11:59 PM 71 51 36 /16 48 / 14 13.3  (SW) 9.7 34.3 mph 230° @ 0424 PM 2.5 or 0.1 0.00 9.9 75.8 0
Amarillo 9NNE 11:59 PM 71 51 36 /16 48 / 14 13  (S) 9.2 38.7 mph 207° @ 1056 AM 2.5 or 0.1 0.00 11.4 88.4 0
Amherst 1NE 11:55 PM 71 51 36 /16 48 / 14 10.7  (NW) 7.9 25.4 mph 234° @ 0410 PM 2.3 or 0.09 0.00 2 75.1 0
Andrews 2E 11:59 PM 71 51 36 /16 48 / 14 6  (NE) 3.5 20.8 mph 221° @ 0158 PM 1.3 or 0.05 0.09 8.7 60.9 0
Anton 6SSW 11:55 PM 71 51 36 /16 48 / 14 10.8  (N) 9 24.9 mph 251° @ 0315 PM 2 or 0.08 0.00 10.3 75.2 0
Aspermont 3NE 11:55 PM 71 51 36 /16 48 / 14 7.6  (N) 5.2 22.1 mph 208° @ 0855 PM 1 or 0.04 0.02 1.1 40.4 0
Big Bend NP - Castolon 11:59 PM 71 51 36 /16 48 / 14 6.1  (NW) 4.9 19.4 mph 342° @ 0354 AM 1.3 or 0.05 0.00 3.1 20.1 0
Big Bend NP - Persimmon Gap 11:59 PM 71 51 36 /16 48 / 14 10.3  (NE) 8.1 27.4 mph 38° @ 0426 AM 1 or 0.04 0.01 4.1 26.2 0
Big Lake 1WNW 11:59 PM 71 51 36 /16 48 / 14 4.9  (NE) 3.9 13 mph 43° @ 1205 AM 0.8 or 0.03 0.09 4.6 31.3 0
Bootleg 11WNW 11:59 PM 71 51 36 /16 48 / 14 18  (SW) 13.8 36.8 mph 217° @ 0511 PM 2.5 or 0.1 0.00 12 90.6 0
Borger 7E 11:59 PM 71 51 36 /16 48 / 14 15  (S) 10.5 35.1 mph 223° @ 0419 PM 2.8 or 0.11 0.00 12.5 98.3 0
Boys Ranch 1WSW 11:59 PM 71 51 36 /16 48 / 14 7.6  (SW) 5.9 32.9 mph 251° @ 0246 PM 2 or 0.08 0.00 12.7 99.7 0
Brownfield 2S 11:59 PM 71 51 36 /16 48 / 14 9.4  (NE) 6.9 23 mph 245° @ 0305 PM 1.5 or 0.06 0.00 7.9 57 0
Canadian 6E 11:59 PM 71 51 36 /16 48 / 14 10.7  (NW) 6.8 33 mph 205° @ 1102 AM 1.8 or 0.07 0.00 7.9 63 0
Caprock Canyons State Park 11:59 PM 71 51 36 /16 48 / 14 12.4  (NW) 8.9 39 mph 274° @ 1149 PM 2.3 or 0.09 0.00 9 68 0
Childress 2NNE 11:55 PM 71 51 36 /16 48 / 14 9.2  (S) 6.1 25.7 mph 179° @ 0645 PM 1.5 or 0.06 0.00 4.8 36.2 0
Clarendon 2WSW 11:55 PM 71 51 36 /16 48 / 14 11  (S) 7 26.1 mph 224° @ 1015 PM 2 or 0.08 0.00 7.1 54.1 0
Claude 12SW 11:59 PM 71 51 36 /16 48 / 14 10.1  (S) 7.5 29.9 mph 258° @ 1155 PM 2 or 0.08 0.00 7.9 60.6 0
Clyde 2WNW 11:59 PM 71 51 36 /16 48 / 14 6  (NE) 4.2 17.9 mph 201° @ 1045 PM 0.5 or 0.02 0.44 2.1 15.1 0
Colorado City 5NW 11:59 PM 71 51 36 /16 48 / 14 5.5  (NE) 3.5 15.8 mph 250° @ 0333 PM 0.8 or 0.03 0.08 4.7 33.1 0
Comanche Springs 11:59 PM 71 51 36 /16 48 / 14 5.8  (N) 3.8 17.5 mph 230° @ 0415 PM 1.3 or 0.05 0.00 4.5 34.1 0
Coyanosa 2N 11:59 PM 71 51 36 /16 48 / 14 3.2  (E) 1.5 8.8 mph 75° @ 0104 AM 0.8 or 0.03 0.05 6.6 44.7 0
Crane 1NNW 11:59 PM 71 51 36 /16 48 / 14 3.2  (E) 1.4 9.9 mph 246° @ 0112 PM 0.8 or 0.03 0.02 4.9 33.4 0
Crowell 1E 11:59 PM 71 51 36 /16 48 / 14 8  (N) 6.1 20.4 mph 201° @ 0831 PM 1.3 or 0.05 0.00 3.3 24.7 0
Dell City 11:59 PM 71 51 36 /16 48 / 14 4  (W) 2.7 12.1 mph 252° @ 1205 AM 1 or 0.04 0.01 10.1 69.8 0
Denver City 7WNW 11:55 PM 71 51 36 /16 48 / 14 8.8  (NE) 6.3 19.7 mph 251° @ 1120 PM 1.5 or 0.06 0.01 10 71 0
Dimmitt 2NE 11:55 PM 71 51 36 /16 48 / 14 15.9  (W) 13.2 33.7 mph 248° @ 1130 PM 2.3 or 0.09 0.00 9.6 72.4 0
Doole 3WNW 11:59 PM 71 51 36 /16 48 / 14 4.7  (NE) 3.7 13.2 mph 283° @ 0219 PM 0.5 or 0.02 0.68 2.4 16.4 0
Dora NM 2SW 11:55 PM 71 51 36 /16 48 / 14 13  (SE) 10 33.2 mph 253° @ 0455 PM 2.3 or 0.09 0.00 9.3 68 0
Dozier 3W 11:59 PM 71 51 36 /16 48 / 14 7.1  (W) 3.9 24.9 mph 199° @ 0314 PM 1.5 or 0.06 0.00 5.3 41.3 0
Earth 9WSW 11:59 PM 71 51 36 /16 48 / 14 11.5  (W) 8.6 30.7 mph 226° @ 0934 PM 2.3 or 0.09 0.00 8.3 61.8 0
Endee NM 2SW 11:59 PM 71 51 36 /16 48 / 14 14.4  (S) 10.6 33.6 mph 230° @ 0302 PM 2.8 or 0.11 0.00 12.6 96.7 0
Estelline 3SSE 11:59 PM 71 51 36 /16 48 / 14 7.9  (W) 4.9 21.1 mph 168° @ 0636 PM 1.5 or 0.06 0.00 5.6 42.7 0
Floydada 2NNE 11:55 PM 71 51 36 /16 48 / 14 11.5  (W) 8.3 25.6 mph 212° @ 0800 PM 2 or 0.08 0.00 8.9 65.8 0
Fluvanna 3WNW 11:55 PM 71 51 36 /16 48 / 14 7.8  (N) 5.8 19.7 mph 228° @ 1240 PM 1 or 0.04 0.00 5.2 37.5 0
Fort Chadbourne 11:59 PM 71 51 36 /16 48 / 14 2.8  (NE) 1.4 12.4 mph 35° @ 1205 AM 0.5 or 0.02 0.48 3 21.3 0
Fort Lancaster 11:59 PM 71 51 36 /16 48 / 14 2.4  (NE) 1 11.9 mph 38° @ 1204 AM 0.8 or 0.03 0.04 3.5 23.2 0
Fort Lewis CO 11:59 PM 71 51 36 /16 48 / 14 5.2  (E) 2.9 18.3 mph 76° @ 1206 AM 0.5 or 0.02 0.38 12.9 103.9 0
Fort McKavett 11:59 PM 71 51 36 /16 48 / 14 4  (NE) 1.7 18.3 mph 40° @ 0206 AM 0.5 or 0.02 0.94 2.6 17.3 0
Friona 2NE 11:55 PM 71 51 36 /16 48 / 14 14.7  (W) 11.4 31.9 mph 228° @ 0410 PM 2.3 or 0.09 0.00 11.2 84.5 0
Fritch 1WNW 11:59 PM 71 51 36 /16 48 / 14 14.7  (SW) 12.4 37.6 mph 237° @ 0335 PM 3 or 0.12 0.00 12.4 97.9 0
Gail 2ESE 11:59 PM 71 51 36 /16 48 / 14 6.6  (NE) 3.6 17.5 mph 222° @ 1001 PM 1 or 0.04 0.02 4.9 35 0
Goodlett 3W 11:55 PM 71 51 36 /16 48 / 14 9.2  (NW) 6.6 23 mph 187° @ 0725 PM 1.5 or 0.06 0.00 5.1 38.8 0
Goodnight 11:59 PM 71 51 36 /16 48 / 14 13.5  (SW) 9.4 32.1 mph 214° @ 1140 AM 2 or 0.08 0.00 7.3 56.4 0
Graham 5SSW 11:59 PM 71 51 36 /16 48 / 14 8  (NE) 5.6 24.1 mph 267° @ 1151 PM 1.5 or 0.06 0.00 7.9 56.9 0
Guadalupe Mtns Natl Park 11:59 PM 71 51 36 /16 48 / 14 11.9  (E) 9 41.7 mph 241° @ 1212 PM 1.8 or 0.07 0.04 10.5 71 0
Guthrie 10WSW 11:55 PM 71 51 36 /16 48 / 14 9.3  (NW) 5.9 23.6 mph 206° @ 0945 PM 1.5 or 0.06 0.00 1.2 43.2 0
Hackberry 2SSE 11:59 PM 71 51 36 /16 48 / 14 10  (NW) 7.3 27.4 mph 219° @ 1138 PM 1.5 or 0.06 0.00 5.1 38.2 0
Happy 1E 11:59 PM 71 51 36 /16 48 / 14 14.7  (SW) 12.3 34.6 mph 224° @ 0445 PM 2.3 or 0.09 0.00 8.8 66.5 0
Hart 3N 11:55 PM 71 51 36 /16 48 / 14 12.8  (W) 10 28.6 mph 223° @ 0420 PM 2 or 0.08 0.00 8.1 60.3 0
Haskell 1NW 11:55 PM 71 51 36 /16 48 / 14 8.6  (N) 6.6 23.3 mph 205° @ 0905 PM 0.8 or 0.03 0.05 3.8 28 0
Hefner 1SW 11:59 PM 71 51 36 /16 48 / 14 9.2  (NE) 6.6 24.8 mph 201° @ 0929 PM 1 or 0.04 0.00 3.7 27.7 0
Hereford 2NW 11:55 PM 71 51 36 /16 48 / 14 14.5  (SW) 11.6 34 mph 238° @ 1120 AM 2.3 or 0.09 0.00 10.5 79.5 0
Hobbs NM 5NW 11:59 PM 71 51 36 /16 48 / 14 6.5  (NE) 4.7 16.3 mph 225° @ 0452 PM 1.3 or 0.05 0.01 9.1 64.4 0
Jayton 1SSE 11:55 PM 71 51 36 /16 48 / 14 7.2  (NE) 5.3 18.6 mph 242° @ 1235 PM 1 or 0.04 0.00 5.5 39.9 0
Junction 1SSW 11:59 PM 71 51 36 /16 48 / 14 3.5  (NE) 2.5 18.9 mph 70° @ 0733 AM 0.5 or 0.02 0.95 1.7 11.5 0
Kent 9E 11:59 PM 71 51 36 /16 48 / 14 7.5  (E) 5.4 20.9 mph 242° @ 1004 PM 1.5 or 0.06 0.04 10.8 72.5 0
Knox City 3NW 11:59 PM 71 51 36 /16 48 / 14 8  (N) 5.5 27.4 mph 201° @ 0817 PM 1 or 0.04 0.00 4.8 35 0
Lake Alan Henry 1NW 11:59 PM 71 51 36 /16 48 / 14 7  (NE) 5 21 mph 234° @ 0949 PM 1.3 or 0.05 0.00 5.7 40.9 0
Lake McClellan 2NW 11:59 PM 71 51 36 /16 48 / 14 12.9  (SW) 9.6 31.9 mph 239° @ 1118 AM 2 or 0.08 0.00 7.3 56.9 0
Lamesa 2SE 11:55 PM 71 51 36 /16 48 / 14 7.6  (NE) 5.5 18.3 mph 242° @ 0330 PM 1.3 or 0.05 0.03 7.3 51.8 0
Lesley 2S 11:59 PM 71 51 36 /16 48 / 14 7  (NW) 4.8 27.9 mph 254° @ 1031 PM 1.8 or 0.07 0.00 9.2 70.5 0
Levelland 4S 11:59 PM 71 51 36 /16 48 / 14 10.4  (E) 8.7 25.2 mph 235° @ 1051 PM 2 or 0.08 0.00 11.1 80.8 0
Lomax 1SSE 11:59 PM 71 51 36 /16 48 / 14 6.1  (NE) 4.5 15.2 mph 229° @ 0149 PM 0.8 or 0.03 0.11 4.9 33.9 0
Lubbock 3WNW TTU 11:55 PM 71 51 36 /16 48 / 14 9.3  (N) 5.4 25.7 mph 237° @ 1025 PM 2 or 0.08 0.00 10.6 77.7 0
McAdoo 3NNW 11:59 PM 71 51 36 /16 48 / 14 11.4  (N) 8.9 26.3 mph 231° @ 1227 PM 1.8 or 0.07 0.00 7.3 53.4 0
McCamey 1SSW 11:59 PM 71 51 36 /16 48 / 14 2.7  (W) 1.9 10.3 mph 29° @ 0612 AM 0.8 or 0.03 0.06 4.3 29.1 0
McLean 1E 11:55 PM 71 51 36 /16 48 / 14 12  (S) 9 31.9 mph 206° @ 0235 PM 2 or 0.08 0.00 6 46.5 0
Memphis 1NE 11:59 PM 71 51 36 /16 48 / 14 5.5  (W) 3.4 24.1 mph 207° @ 0403 PM 1.5 or 0.06 0.00 8.8 67.1 0
Menard 2NW 11:59 PM 71 51 36 /16 48 / 14 4  (NE) 3 14.4 mph 42° @ 0256 AM 0.5 or 0.02 1.03 2 13.7 0
Mertzon 3NNE 11:59 PM 71 51 36 /16 48 / 14 4.3  (NE) 2.6 15.8 mph 33° @ 1213 AM 0.5 or 0.02 0.36 3.6 24.5 0
Morton 1ENE 11:55 PM 71 51 36 /16 48 / 14 10.3  (SW) 7.6 25 mph 228° @ 1015 PM 2.3 or 0.09 0.00 10.4 76.1 0
Muleshoe 2SSW 11:55 PM 71 51 36 /16 48 / 14 11.6  (W) 8 28.3 mph 244° @ 0510 PM 2 or 0.08 0.00 9.6 71.6 0
New Home 11:59 PM 71 51 36 /16 48 / 14 9.8  (NE) 7.3 22.1 mph 243° @ 1216 PM 1.8 or 0.07 0.00 7.2 52.1 0
Northfield 1S 11:55 PM 71 51 36 /16 48 / 14 9.1  (W) 5.8 24.3 mph 224° @ 0915 PM 1.8 or 0.07 0.00 4.9 37.3 0
O'Donnell 1N 11:55 PM 71 51 36 /16 48 / 14 9  (NE) 5.8 22 mph 253° @ 0340 PM 1.5 or 0.06 0.00 7.3 52.2 0
Odell 4ENE 11:59 PM 71 51 36 /16 48 / 14 9  (NW) 6.6 25.1 mph 177° @ 0743 PM 1 or 0.04 0.00 4.2 32.1 0
Olton 6S 11:55 PM 71 51 36 /16 48 / 14 11.8  (NW) 9.2 26.5 mph 256° @ 1145 PM 2 or 0.08 0.00 10.6 78.6 0
Paducah 10SW 11:55 PM 71 51 36 /16 48 / 14 9.9  (NW) 6.2 30.4 mph 224° @ 1010 PM 1.8 or 0.07 0.00 1.2 44.5 0
Palo Duro 4E (JA Ranch) 11:59 PM 71 51 36 /16 48 / 14 8.2  (N) 5.7 31.3 mph 242° @ 1024 PM 1.8 or 0.07 0.00 7 53.9 0
Palo Duro Canyon SP Floor 11:59 PM 71 51 36 /16 48 / 14 5.2  (NW) 2.3 27.9 mph 249° @ 0842 PM 1.5 or 0.06 0.00 7.9 60.6 0
Palo Duro Canyon State Park Rim 11:59 PM 71 51 36 /16 48 / 14 11.1  (SW) 6.4 28.9 mph 227° @ 0450 PM 2.3 or 0.09 0.00 8.5 65.4 0
Palo Duro Reservoir 1NW 11:59 PM 71 51 36 /16 48 / 14 14.6  (SW) 9.9 40.4 mph 208° @ 1058 AM 3 or 0.12 0.00 11.7 94.8 0
Pampa 2E 11:55 PM 71 51 36 /16 48 / 14 12.7  (SW) 8.6 30.1 mph 205° @ 1030 AM 2 or 0.08 0.00 9.1 71.2 0
Panhandle 1SSW 11:59 PM 71 51 36 /16 48 / 14 15.1  (SW) 11.2 36.8 mph 216° @ 1059 AM 2.5 or 0.1 0.00 10.1 78.5 0
Plains 3N 11:55 PM 71 51 36 /16 48 / 14 8.4  (NE) 6.6 22.7 mph 241° @ 0115 PM 1.5 or 0.06 0.00 11.7 83.8 0
Plainview 1S 11:59 PM 71 51 36 /16 48 / 14 11.2  (NW) 8.6 34 mph 232° @ 0114 PM 2 or 0.08 0.00 10.2 75.6 0
Post 1NE 11:59 PM 71 51 36 /16 48 / 14 7.7  (N) 5.1 21.9 mph 223° @ 0937 PM 1.5 or 0.06 0.00 7.1 51.7 0
Ralls 1SE 11:59 PM 71 51 36 /16 48 / 14 10.4  (W) 8 26.3 mph 230° @ 1047 PM 1.8 or 0.07 0.00 7.3 53.6 0
Reese Center 11:59 PM 71 51 36 /16 48 / 14 10.6  (N) 8.2 26.3 mph 240° @ 1043 PM 2 or 0.08 0.00 11.1 80.7 0
Roaring Springs 3N 11:59 PM 71 51 36 /16 48 / 14 10.7  (W) 7.9 27.4 mph 219° @ 0929 PM 1.8 or 0.07 0.00 6.2 45.8 0
Romero 11SSW 11:59 PM 71 51 36 /16 48 / 14 13.9  (SW) 10 36.4 mph 226° @ 0202 PM 2.5 or 0.1 0.00 12.5 97.3 0
Rotan 5W 11:59 PM 71 51 36 /16 48 / 14 9.4  (N) 6.9 26.9 mph 204° @ 0839 PM 1 or 0.04 0.02 5.8 41.8 0
San Angelo 7NW 11:55 PM 71 51 36 /16 48 / 14 3.9  (NE) 2.4 11.6 mph 240° @ 0250 PM 0.8 or 0.03 0.38 3.4 23.1 0
Seagraves 1SW 11:55 PM 71 51 36 /16 48 / 14 7.8  (NE) 5.1 19.4 mph 232° @ 0320 PM 1.3 or 0.05 0.00 1.4 50 0
Segovia 7SSW 11:59 PM 71 51 36 /16 48 / 14 4.7  (NE) 3 18.8 mph 84° @ 0812 AM 0.5 or 0.02 0.84 2.1 13.6 0
Seminole 2NNE 11:55 PM 71 51 36 /16 48 / 14 6.6  (NE) 4.4 17.6 mph 232° @ 0250 PM 1.3 or 0.05 0.02 7.9 56.2 0
Seymour 3NW 11:55 PM 71 51 36 /16 48 / 14 7.6  (N) 5.7 20 mph 183° @ 0815 PM 0.8 or 0.03 0.00 2.6 19.5 0
Sierra Blanca 1SSE 11:59 PM 71 51 36 /16 48 / 14 5.2  (E) 3.7 14.2 mph 107° @ 0237 AM 1 or 0.04 0.10 7.1 47.6 0
Silverton 7ESE 11:55 PM 71 51 36 /16 48 / 14 14  (W) 10.9 30.6 mph 232° @ 1130 AM 2 or 0.08 0.00 9.2 69 0
Slaton 2NE 11:59 PM 71 51 36 /16 48 / 14 10.8  (N) 8.5 26.3 mph 239° @ 1131 PM 1.8 or 0.07 0.00 8.1 58.6 0
Smyer 11:59 PM 71 51 36 /16 48 / 14 10.3  (SE) 8.6 26 mph 236° @ 0918 PM 2 or 0.08 0.00 11.2 81.3 0
Snyder 3E 11:55 PM 71 51 36 /16 48 / 14 7.3  (NE) 3.4 18.9 mph 231° @ 0145 PM 1 or 0.04 0.01 5.1 36.1 0
Snyder 3SSW 11:59 PM 71 51 36 /16 48 / 14 7  (NE) 5.1 18.2 mph 235° @ 1259 PM 1 or 0.04 0.01 5.4 38.6 0
South Plains 3ENE 11:59 PM 71 51 36 /16 48 / 14 11.3  (W) 8.5 27.4 mph 255° @ 1258 PM 2 or 0.08 0.00 9.3 69.7 0
Spur 1W 11:55 PM 71 51 36 /16 48 / 14 6.9  (NE) 5 19.4 mph 254° @ 1235 PM 1.5 or 0.06 0.00 6.6 48 0
St. Lawrence 5SW 11:55 PM 71 51 36 /16 48 / 14 5.8  (N) 4.4 14.8 mph 252° @ 0345 PM 0.8 or 0.03 0.04 1 33 0
Stamford 5ESE 11:59 PM 71 51 36 /16 48 / 14 7.1  (NE) 5.2 19.3 mph 207° @ 0851 PM 0.8 or 0.03 0.16 2.8 20.6 0
Sterling City 4WSW 11:59 PM 71 51 36 /16 48 / 14 4.4  (N) 2.7 14 mph 214° @ 0907 PM 0.8 or 0.03 0.09 3.7 25.6 0
Stinnett 1NNW 11:59 PM 71 51 36 /16 48 / 14 16.7  (SW) 10.6 36.5 mph 210° @ 1035 AM 3.3 or 0.13 0.00 12.1 95.4 0
Stratford 4WNW 11:59 PM 71 51 36 /16 48 / 14 16.2  (SW) 10.8 34.4 mph 209° @ 0803 AM 2.5 or 0.1 0.00 12.9 103.8 0
Sundown 8WSW 11:55 PM 71 51 36 /16 48 / 14 9.5  (NE) 6.8 24.5 mph 241° @ 1125 PM 2 or 0.08 0.00 9.5 69 0
Sweetwater 11SW 11:59 PM 71 51 36 /16 48 / 14 7  (NE) 4.9 17.4 mph 237° @ 1157 AM 0.8 or 0.03 0.22 3.5 24.7 0
Tahoka 3NNE 11:59 PM 71 51 36 /16 48 / 14 8.8  (NE) 5.8 21.3 mph 254° @ 0236 PM 1.5 or 0.06 0.00 8.1 58.3 0
Tarzan 2WNW 11:59 PM 71 51 36 /16 48 / 14 6.5  (NE) 4.8 15.3 mph 226° @ 0314 PM 1 or 0.04 0.06 4.6 31.9 0
Tatum NM 2SW 11:55 PM 71 51 36 /16 48 / 14 9.3  (NE) 6.1 20.8 mph 229° @ 1105 PM 1.5 or 0.06 0.00 11.9 85.5 0
Throckmorton 1SW 11:59 PM 71 51 36 /16 48 / 14 5.6  (NE) 2.7 22.2 mph 219° @ 1153 PM 0.8 or 0.03 0.15 2.7 19.5 0
Truscott 2SE 11:59 PM 71 51 36 /16 48 / 14 8  (N) 5.5 21.4 mph 180° @ 0750 PM 1.3 or 0.05 0.00 3.8 28.5 0
Tulia 2ENE 11:55 PM 71 51 36 /16 48 / 14 13.9  (W) 11.1 30.9 mph 252° @ 1150 PM 2.3 or 0.09 0.00 7.2 54.5 0
Turkey 2WSW 11:55 PM 71 51 36 /16 48 / 14 13.3  (W) 10.4 36.9 mph 226° @ 1145 PM 2.5 or 0.1 0.00 6.6 50.2 0
Umbarger 3NNE 11:59 PM 71 51 36 /16 48 / 14 15  (SW) 11.2 35 mph 229° @ 0405 PM 2.5 or 0.1 0.00 10.7 81.7 0
Van Horn 3ENE 11:59 PM 71 51 36 /16 48 / 14 6.7  (E) 4.4 17 mph 14° @ 0351 AM 1.3 or 0.05 0.04 9.1 60.9 0
Vega 4E 11:59 PM 71 51 36 /16 48 / 14 18.3  (SW) 14.3 39.5 mph 237° @ 0346 PM 2.8 or 0.11 0.00 13.6 104.5 0
Vigo Park 11:59 PM 71 51 36 /16 48 / 14 13.9  (W) 10 32.4 mph 218° @ 0449 PM 2 or 0.08 0.00 7.7 58.2 0
Wall 2E 11:59 PM 71 51 36 /16 48 / 14 6.2  (NE) 4.9 18.9 mph 46° @ 1203 AM 0.5 or 0.02 0.77 2.9 19.9 0
Weinert 2NNE 11:59 PM 71 51 36 /16 48 / 14 8.6  (NE) 6.4 24.9 mph 209° @ 1045 PM 1 or 0.04 0.01 3.5 25.9 0
Welch 11:59 PM 71 51 36 /16 48 / 14 8.4  (NE) 6.5 19.9 mph 266° @ 0222 PM 1.3 or 0.05 0.00 8.4 60.2 0
White River Lake 6NW 11:59 PM 71 51 36 /16 48 / 14 8.7  (N) 6.2 28.5 mph 242° @ 1107 PM 1.5 or 0.06 0.00 7.8 56.7 0
Wolfforth 6SSW 11:59 PM 71 51 36 /16 48 / 14 10.3  (E) 8 23 mph 232° @ 0327 PM 1.8 or 0.07 0.00 9.4 68.4 0

WestTexas Mesonet Home    Site Map/Menu  National Weather Service Lubbock   Soil Data   Latest Observation Page   Previous  Date   Next Last